^^
Saratoga-Weather Station Historical Data
Daily Summary for June 27, 2021 Units:  Both    English   Metric
Daily Weekly Monthly Yearly Custom
  High: Low: Average:
Temperature: 79 °F /  26.1 °C 60.4 °F /  15.8 °C 69.6 °F /  20.9 °C
Dew Point: 67.6 °F /  19.8 °C 56.5 °F /  13.6 °C 61.9 °F /  16.6 °C
Humidity: 89% 63% 77%
Wind Speed: 6mph /  9.7km/h - 0.7mph /  1.2km/h
Wind Gust: 9mph /  14.5km/h - -
Wind- - SSE
Pressure: 30 in /  1015.2 hPa 29.9 in /  1010.8 hPa -
Precipitation: 0 in /  0.0 mm    
Historical Graphs
 
 
Tabular Data for June 27, 2021
Time Temperature Dew Point Pressure Wind Wind Speed Wind Gust Humidity Rainfall Rate (Hourly) solar
00:01 64.6 °F /  18.1 °C 57.6 °F /  14.2 °C 30in /  1015.2hPa Calm     78% 0in /  0.0mm 0 W/m2
00:06 64.6 °F /  18.1 °C 57.9 °F /  14.4 °C 30in /  1015.2hPa Calm     79% 0in /  0.0mm 0 W/m2
00:11 64.2 °F /  17.9 °C 57.6 °F /  14.2 °C 30in /  1015.2hPa Calm     79% 0in /  0.0mm 0 W/m2
00:16 64.2 °F /  17.9 °C 57.9 °F /  14.4 °C 30in /  1014.9hPa Calm     80% 0in /  0.0mm 0 W/m2
00:21 64 °F /  17.8 °C 57.7 °F /  14.3 °C 30in /  1014.9hPa Calm   1mph /  1.6km/h 80% 0in /  0.0mm 0 W/m2
00:26 64 °F /  17.8 °C 57.7 °F /  14.3 °C 30in /  1014.9hPa Calm   2mph /  3.2km/h 80% 0in /  0.0mm 0 W/m2
00:31 63.9 °F /  17.7 °C 57.6 °F /  14.2 °C 30in /  1014.9hPa Calm     80% 0in /  0.0mm 0 W/m2
00:36 63.9 °F /  17.7 °C 57.6 °F /  14.2 °C 30in /  1014.9hPa SSW 0.9mph /  1.4km/h 2mph /  3.2km/h 80% 0in /  0.0mm 0 W/m2
00:41 63.9 °F /  17.7 °C 57.9 °F /  14.4 °C 30in /  1014.9hPa Calm   2mph /  3.2km/h 81% 0in /  0.0mm 0 W/m2
00:46 63.7 °F /  17.6 °C 57.7 °F /  14.3 °C 30in /  1014.9hPa Calm   1mph /  1.6km/h 81% 0in /  0.0mm 0 W/m2
00:51 63.3 °F /  17.4 °C 57.4 °F /  14.1 °C 30in /  1014.9hPa Calm   2mph /  3.2km/h 81% 0in /  0.0mm 0 W/m2
00:56 63.1 °F /  17.3 °C 57.6 °F /  14.2 °C 30in /  1014.9hPa Calm   1mph /  1.6km/h 82% 0in /  0.0mm 0 W/m2
01:01 63.1 °F /  17.3 °C 57.6 °F /  14.2 °C 30in /  1014.9hPa SSW 0.9mph /  1.4km/h 1mph /  1.6km/h 82% 0in /  0.0mm 0 W/m2
01:06 63 °F /  17.2 °C 57.4 °F /  14.1 °C 30in /  1014.6hPa Calm     82% 0in /  0.0mm 0 W/m2
01:11 62.8 °F /  17.1 °C 57.2 °F /  14 °C 30in /  1014.6hPa Calm   1mph /  1.6km/h 82% 0in /  0.0mm 0 W/m2
01:16 62.6 °F /  17 °C 57.4 °F /  14.1 °C 30in /  1014.6hPa Calm     83% 0in /  0.0mm 0 W/m2
01:21 62.4 °F /  16.9 °C 57.2 °F /  14 °C 30in /  1014.9hPa Calm   1mph /  1.6km/h 83% 0in /  0.0mm 0 W/m2
01:26 62.2 °F /  16.8 °C 57 °F /  13.9 °C 30in /  1014.6hPa Calm     83% 0in /  0.0mm 0 W/m2
01:31 62.2 °F /  16.8 °C 57 °F /  13.9 °C 30in /  1014.6hPa Calm     83% 0in /  0.0mm 0 W/m2
01:36 62.1 °F /  16.7 °C 57.2 °F /  14 °C 30in /  1014.6hPa SSW 0.9mph /  1.4km/h 2mph /  3.2km/h 84% 0in /  0.0mm 0 W/m2
01:41 62.1 °F /  16.7 °C 57.2 °F /  14 °C 30in /  1014.6hPa SSW 0.9mph /  1.4km/h 1mph /  1.6km/h 84% 0in /  0.0mm 0 W/m2
01:46 62.1 °F /  16.7 °C 57.2 °F /  14 °C 30in /  1014.6hPa Calm   2mph /  3.2km/h 84% 0in /  0.0mm 0 W/m2
01:51 62.1 °F /  16.7 °C 57.2 °F /  14 °C 30in /  1014.6hPa Calm     84% 0in /  0.0mm 0 W/m2
01:56 62.1 °F /  16.7 °C 57.2 °F /  14 °C 30in /  1014.6hPa Calm   1mph /  1.6km/h 84% 0in /  0.0mm 0 W/m2
02:01 62.1 °F /  16.7 °C 57.2 °F /  14 °C 30in /  1014.6hPa Calm     84% 0in /  0.0mm 0 W/m2
02:06 62.1 °F /  16.7 °C 57.2 °F /  14 °C 30in /  1014.6hPa SSW 0.9mph /  1.4km/h 2mph /  3.2km/h 84% 0in /  0.0mm 0 W/m2
02:11 62.1 °F /  16.7 °C 57.2 °F /  14 °C 30in /  1014.6hPa Calm   2mph /  3.2km/h 84% 0in /  0.0mm 0 W/m2
02:16 61.9 °F /  16.6 °C 57 °F /  13.9 °C 30in /  1014.6hPa Calm   1mph /  1.6km/h 84% 0in /  0.0mm 0 W/m2
02:21 61.9 °F /  16.6 °C 57 °F /  13.9 °C 30in /  1014.6hPa Calm     84% 0in /  0.0mm 0 W/m2
02:26 61.7 °F /  16.5 °C 57.2 °F /  14 °C 30in /  1014.6hPa Calm     85% 0in /  0.0mm 0 W/m2
02:31 61.5 °F /  16.4 °C 57 °F /  13.9 °C 30in /  1014.6hPa Calm     85% 0in /  0.0mm 0 W/m2
02:36 61.5 °F /  16.4 °C 57 °F /  13.9 °C 30in /  1014.6hPa SSW 0.9mph /  1.4km/h 1mph /  1.6km/h 85% 0in /  0.0mm 0 W/m2
02:41 61.3 °F /  16.3 °C 57.2 °F /  14 °C 30in /  1014.9hPa SSW 0.9mph /  1.4km/h 2mph /  3.2km/h 86% 0in /  0.0mm 0 W/m2
02:46 61.3 °F /  16.3 °C 57.2 °F /  14 °C 30in /  1014.6hPa Calm     86% 0in /  0.0mm 0 W/m2
02:51 61.3 °F /  16.3 °C 57.2 °F /  14 °C 30in /  1014.6hPa Calm     86% 0in /  0.0mm 0 W/m2
02:56 61.5 °F /  16.4 °C 57.4 °F /  14.1 °C 30in /  1014.6hPa Calm   1mph /  1.6km/h 86% 0in /  0.0mm 0 W/m2
03:01 61.5 °F /  16.4 °C 57.4 °F /  14.1 °C 30in /  1014.6hPa Calm     86% 0in /  0.0mm 0 W/m2
03:06 61.5 °F /  16.4 °C 57.4 °F /  14.1 °C 30in /  1014.6hPa SSW 0.9mph /  1.4km/h 1mph /  1.6km/h 86% 0in /  0.0mm 0 W/m2
03:11 61.5 °F /  16.4 °C 57.4 °F /  14.1 °C 30in /  1014.6hPa Calm   1mph /  1.6km/h 86% 0in /  0.0mm 0 W/m2
03:16 61.7 °F /  16.5 °C 57.4 °F /  14.1 °C 30in /  1014.6hPa SSW 0.9mph /  1.4km/h 1mph /  1.6km/h 86% 0in /  0.0mm 0 W/m2
03:21 61.9 °F /  16.6 °C 57.6 °F /  14.2 °C 30in /  1014.2hPa Calm   1mph /  1.6km/h 86% 0in /  0.0mm 0 W/m2
03:26 61.9 °F /  16.6 °C 57.4 °F /  14.1 °C 30in /  1014.2hPa SW 0.9mph /  1.4km/h 1mph /  1.6km/h 85% 0in /  0.0mm 0 W/m2
03:31 61.9 °F /  16.6 °C 57.4 °F /  14.1 °C 30in /  1014.2hPa SW 2mph /  3.2km/h 2mph /  3.2km/h 85% 0in /  0.0mm 0 W/m2
03:36 61.9 °F /  16.6 °C 57.4 °F /  14.1 °C 30in /  1014.2hPa Calm     85% 0in /  0.0mm 0 W/m2
03:41 61.9 °F /  16.6 °C 57.4 °F /  14.1 °C 30in /  1014.2hPa SW 2mph /  3.2km/h 2mph /  3.2km/h 85% 0in /  0.0mm 0 W/m2
03:46 62.1 °F /  16.7 °C 57.6 °F /  14.2 °C 30in /  1014.2hPa Calm     85% 0in /  0.0mm 0 W/m2
03:51 61.9 °F /  16.6 °C 57.4 °F /  14.1 °C 30in /  1014.2hPa SW 0.9mph /  1.4km/h 2mph /  3.2km/h 85% 0in /  0.0mm 0 W/m2
03:56 62.1 °F /  16.7 °C 57.6 °F /  14.2 °C 30in /  1014.2hPa SW 0.9mph /  1.4km/h 2mph /  3.2km/h 85% 0in /  0.0mm 0 W/m2
04:01 62.1 °F /  16.7 °C 57.2 °F /  14 °C 30in /  1014.2hPa SSW 0.9mph /  1.4km/h 2mph /  3.2km/h 84% 0in /  0.0mm 0 W/m2
04:06 62.1 °F /  16.7 °C 57.2 °F /  14 °C 29.9in /  1013.9hPa Calm     84% 0in /  0.0mm 0 W/m2
04:11 62.1 °F /  16.7 °C 57.2 °F /  14 °C 29.9in /  1013.9hPa Calm   2mph /  3.2km/h 84% 0in /  0.0mm 0 W/m2
04:16 61.9 °F /  16.6 °C 57 °F /  13.9 °C 29.9in /  1013.9hPa SSW 0.9mph /  1.4km/h 1mph /  1.6km/h 84% 0in /  0.0mm 0 W/m2
04:21 61.9 °F /  16.6 °C 57.4 °F /  14.1 °C 29.9in /  1013.9hPa SSW 0.9mph /  1.4km/h 1mph /  1.6km/h 85% 0in /  0.0mm 0 W/m2
04:26 61.5 °F /  16.4 °C 57 °F /  13.9 °C 29.9in /  1013.5hPa Calm     85% 0in /  0.0mm 0 W/m2
04:31 61.5 °F /  16.4 °C 57 °F /  13.9 °C 29.9in /  1013.5hPa Calm     85% 0in /  0.0mm 0 W/m2
04:36 61.5 °F /  16.4 °C 57 °F /  13.9 °C 29.9in /  1013.5hPa Calm     85% 0in /  0.0mm 0 W/m2
04:41 61.5 °F /  16.4 °C 57 °F /  13.9 °C 29.9in /  1013.5hPa Calm     85% 0in /  0.0mm 0 W/m2
04:47 61.5 °F /  16.4 °C 57 °F /  13.9 °C 29.9in /  1013.5hPa Calm     85% 0in /  0.0mm 0 W/m2
04:52 61.3 °F /  16.3 °C 56.8 °F /  13.8 °C 29.9in /  1013.5hPa Calm     85% 0in /  0.0mm 0 W/m2
04:57 61.3 °F /  16.3 °C 56.8 °F /  13.8 °C 29.9in /  1013.5hPa Calm   1mph /  1.6km/h 85% 0in /  0.0mm 0 W/m2
05:02 61.2 °F /  16.2 °C 56.7 °F /  13.7 °C 29.9in /  1013.5hPa Calm     85% 0in /  0.0mm 0 W/m2
05:07 61.2 °F /  16.2 °C 57 °F /  13.9 °C 29.9in /  1013.5hPa Calm     86% 0in /  0.0mm 0 W/m2
05:12 61.2 °F /  16.2 °C 57 °F /  13.9 °C 29.9in /  1013.5hPa Calm     86% 0in /  0.0mm 0 W/m2
05:17 61 °F /  16.1 °C 56.8 °F /  13.8 °C 29.9in /  1013.2hPa Calm     86% 0in /  0.0mm 0 W/m2
05:22 61 °F /  16.1 °C 56.8 °F /  13.8 °C 29.9in /  1013.2hPa Calm     86% 0in /  0.0mm 0 W/m2
05:27 60.6 °F /  15.9 °C 56.5 °F /  13.6 °C 29.9in /  1013.2hPa Calm     86% 0in /  0.0mm 0 W/m2
05:32 60.6 °F /  15.9 °C 56.7 °F /  13.7 °C 29.9in /  1013.2hPa Calm     87% 0in /  0.0mm 0 W/m2
05:37 60.6 °F /  15.9 °C 56.7 °F /  13.7 °C 29.9in /  1013.2hPa Calm     87% 0in /  0.0mm 0 W/m2
05:42 60.4 °F /  15.8 °C 56.5 °F /  13.6 °C 29.9in /  1013.2hPa Calm     87% 0in /  0.0mm 7 W/m2
05:47 60.4 °F /  15.8 °C 56.5 °F /  13.6 °C 29.9in /  1013.2hPa Calm     87% 0in /  0.0mm 9 W/m2
05:52 60.4 °F /  15.8 °C 56.5 °F /  13.6 °C 29.9in /  1013.2hPa Calm     87% 0in /  0.0mm 11 W/m2
05:57 60.4 °F /  15.8 °C 56.5 °F /  13.6 °C 29.9in /  1013.5hPa Calm     87% 0in /  0.0mm 14 W/m2
06:02 60.6 °F /  15.9 °C 56.7 °F /  13.7 °C 29.9in /  1013.2hPa Calm     87% 0in /  0.0mm 16 W/m2
06:07 60.6 °F /  15.9 °C 56.7 °F /  13.7 °C 29.9in /  1013.2hPa Calm     87% 0in /  0.0mm 21 W/m2
06:12 60.6 °F /  15.9 °C 57 °F /  13.9 °C 29.9in /  1013.2hPa Calm     88% 0in /  0.0mm 23 W/m2
06:17 60.6 °F /  15.9 °C 57 °F /  13.9 °C 29.9in /  1013.2hPa Calm     88% 0in /  0.0mm 26 W/m2
06:22 60.6 °F /  15.9 °C 57 °F /  13.9 °C 29.9in /  1013.2hPa Calm     88% 0in /  0.0mm 28 W/m2
06:27 60.8 °F /  16 °C 57.2 °F /  14 °C 29.9in /  1013.2hPa Calm     88% 0in /  0.0mm 32 W/m2
06:32 60.8 °F /  16 °C 57.2 °F /  14 °C 29.9in /  1013.2hPa Calm     88% 0in /  0.0mm 33 W/m2
06:37 61 °F /  16.1 °C 57.4 °F /  14.1 °C 29.9in /  1012.9hPa Calm     88% 0in /  0.0mm 40 W/m2
06:42 61 °F /  16.1 °C 57.4 °F /  14.1 °C 29.9in /  1012.9hPa Calm     88% 0in /  0.0mm 49 W/m2
06:47 61.2 °F /  16.2 °C 57.6 °F /  14.2 °C 29.9in /  1012.9hPa Calm     88% 0in /  0.0mm 63 W/m2
06:52 61.2 °F /  16.2 °C 57.6 °F /  14.2 °C 29.9in /  1012.9hPa Calm     88% 0in /  0.0mm 72 W/m2
06:57 61.3 °F /  16.3 °C 57.7 °F /  14.3 °C 29.9in /  1012.9hPa Calm     88% 0in /  0.0mm 81 W/m2
07:02 61.5 °F /  16.4 °C 57.9 °F /  14.4 °C 29.9in /  1012.9hPa Calm     88% 0in /  0.0mm 81 W/m2
07:07 61.9 °F /  16.6 °C 58.6 °F /  14.8 °C 29.9in /  1013.2hPa Calm     89% 0in /  0.0mm 76 W/m2
07:12 62.1 °F /  16.7 °C 58.5 °F /  14.7 °C 29.9in /  1012.9hPa Calm     88% 0in /  0.0mm 76 W/m2
07:17 62.2 °F /  16.8 °C 58.3 °F /  14.6 °C 29.9in /  1013.2hPa Calm     87% 0in /  0.0mm 77 W/m2
07:22 62.4 °F /  16.9 °C 58.5 °F /  14.7 °C 29.9in /  1013.2hPa Calm     87% 0in /  0.0mm 74 W/m2
07:27 62.6 °F /  17 °C 58.6 °F /  14.8 °C 29.9in /  1013.2hPa Calm     87% 0in /  0.0mm 70 W/m2
07:32 62.8 °F /  17.1 °C 58.5 °F /  14.7 °C 29.9in /  1013.2hPa Calm     86% 0in /  0.0mm 114 W/m2
07:37 63 °F /  17.2 °C 58.6 °F /  14.8 °C 29.9in /  1013.2hPa Calm     86% 0in /  0.0mm 163 W/m2
07:42 63.3 °F /  17.4 °C 58.5 °F /  14.7 °C 29.9in /  1013.2hPa Calm   2mph /  3.2km/h 84% 0in /  0.0mm 200 W/m2
07:47 64 °F /  17.8 °C 58.8 °F /  14.9 °C 29.9in /  1013.2hPa Calm   2mph /  3.2km/h 83% 0in /  0.0mm 295 W/m2
07:52 64.9 °F /  18.3 °C 58.6 °F /  14.8 °C 29.9in /  1013.2hPa Calm   1mph /  1.6km/h 80% 0in /  0.0mm 160 W/m2
07:57 65.5 °F /  18.6 °C 58.8 °F /  14.9 °C 29.9in /  1013.2hPa Calm   2mph /  3.2km/h 79% 0in /  0.0mm 181 W/m2
08:02 66 °F /  18.9 °C 59 °F /  15 °C 29.9in /  1013.5hPa ESE 0.9mph /  1.4km/h 3mph /  4.8km/h 78% 0in /  0.0mm 204 W/m2
08:07 66.6 °F /  19.2 °C 59.2 °F /  15.1 °C 29.9in /  1013.5hPa East 4mph /  6.4km/h 4mph /  6.4km/h 77% 0in /  0.0mm 141 W/m2
08:12 66.7 °F /  19.3 °C 58.6 °F /  14.8 °C 29.9in /  1013.5hPa East 0.9mph /  1.4km/h 1mph /  1.6km/h 75% 0in /  0.0mm 151 W/m2
08:17 66.7 °F /  19.3 °C 59 °F /  15 °C 29.9in /  1013.5hPa East 0.9mph /  1.4km/h 2mph /  3.2km/h 76% 0in /  0.0mm 169 W/m2
08:22 66.9 °F /  19.4 °C 59.2 °F /  15.1 °C 29.9in /  1013.5hPa Calm   1mph /  1.6km/h 76% 0in /  0.0mm 176 W/m2
08:27 67.1 °F /  19.5 °C 59.4 °F /  15.2 °C 29.9in /  1013.9hPa Calm     76% 0in /  0.0mm 185 W/m2
08:32 67.5 °F /  19.7 °C 60.1 °F /  15.6 °C 29.9in /  1013.9hPa ENE 2mph /  3.2km/h 2mph /  3.2km/h 77% 0in /  0.0mm 193 W/m2
08:37 67.6 °F /  19.8 °C 59.4 °F /  15.2 °C 29.9in /  1013.5hPa NE 0.9mph /  1.4km/h 1mph /  1.6km/h 75% 0in /  0.0mm 197 W/m2
08:42 67.8 °F /  19.9 °C 59.2 °F /  15.1 °C 29.9in /  1013.5hPa NE 0.9mph /  1.4km/h 2mph /  3.2km/h 74% 0in /  0.0mm 200 W/m2
08:47 68.2 °F /  20.1 °C 59.5 °F /  15.3 °C 29.9in /  1013.5hPa Calm   2mph /  3.2km/h 74% 0in /  0.0mm 195 W/m2
08:52 68.4 °F /  20.2 °C 59.4 °F /  15.2 °C 29.9in /  1013.5hPa NE 0.9mph /  1.4km/h 2mph /  3.2km/h 73% 0in /  0.0mm 174 W/m2
08:57 68.5 °F /  20.3 °C 59.5 °F /  15.3 °C 29.9in /  1013.5hPa NNE 0.9mph /  1.4km/h 3mph /  4.8km/h 73% 0in /  0.0mm 163 W/m2
09:02 68.5 °F /  20.3 °C 59.5 °F /  15.3 °C 29.9in /  1013.5hPa Calm   2mph /  3.2km/h 73% 0in /  0.0mm 195 W/m2
09:07 68.7 °F /  20.4 °C 59.7 °F /  15.4 °C 29.9in /  1013.5hPa NNE 2mph /  3.2km/h 5mph /  8km/h 73% 0in /  0.0mm 237 W/m2
09:13 68.9 °F /  20.5 °C 60.3 °F /  15.7 °C 29.9in /  1013.2hPa NE 2mph /  3.2km/h 2mph /  3.2km/h 74% 0in /  0.0mm 253 W/m2
09:18 69.1 °F /  20.6 °C 60.1 °F /  15.6 °C 29.9in /  1013.2hPa Calm   5mph /  8km/h 73% 0in /  0.0mm 251 W/m2
09:23 69.3 °F /  20.7 °C 60.3 °F /  15.7 °C 29.9in /  1012.9hPa Calm   4mph /  6.4km/h 73% 0in /  0.0mm 223 W/m2
09:28 69.3 °F /  20.7 °C 60.3 °F /  15.7 °C 29.9in /  1012.9hPa North 2.9mph /  4.7km/h 3mph /  4.8km/h 73% 0in /  0.0mm 209 W/m2
09:33 69.3 °F /  20.7 °C 60.3 °F /  15.7 °C 29.9in /  1012.9hPa East 2mph /  3.2km/h 4mph /  6.4km/h 73% 0in /  0.0mm 209 W/m2
09:38 69.1 °F /  20.6 °C 60.1 °F /  15.6 °C 29.9in /  1012.9hPa ENE 2mph /  3.2km/h 4mph /  6.4km/h 73% 0in /  0.0mm 211 W/m2
09:43 69.1 °F /  20.6 °C 60.4 °F /  15.8 °C 29.9in /  1012.9hPa ESE 0.9mph /  1.4km/h 3mph /  4.8km/h 74% 0in /  0.0mm 251 W/m2
09:48 69.1 °F /  20.6 °C 60.4 °F /  15.8 °C 29.9in /  1012.9hPa ESE 2mph /  3.2km/h 3mph /  4.8km/h 74% 0in /  0.0mm 362 W/m2
09:53 69.4 °F /  20.8 °C 60.8 °F /  16 °C 29.9in /  1012.9hPa NE 2.9mph /  4.7km/h 4mph /  6.4km/h 74% 0in /  0.0mm 408 W/m2
09:58 70 °F /  21.1 °C 61 °F /  16.1 °C 29.9in /  1012.9hPa NE 0.9mph /  1.4km/h 3mph /  4.8km/h 73% 0in /  0.0mm 408 W/m2
10:03 70.3 °F /  21.3 °C 61.3 °F /  16.3 °C 29.9in /  1012.9hPa SE 2mph /  3.2km/h 5mph /  8km/h 73% 0in /  0.0mm 443 W/m2
10:08 70.7 °F /  21.5 °C 61.2 °F /  16.2 °C 29.9in /  1012.9hPa Calm   3mph /  4.8km/h 72% 0in /  0.0mm 429 W/m2
10:13 71.1 °F /  21.7 °C 61.9 °F /  16.6 °C 29.9in /  1012.9hPa SE 2mph /  3.2km/h 5mph /  8km/h 73% 0in /  0.0mm 323 W/m2
10:18 71.4 °F /  21.9 °C 61.5 °F /  16.4 °C 29.9in /  1012.9hPa NE 0.9mph /  1.4km/h 2mph /  3.2km/h 71% 0in /  0.0mm 378 W/m2
10:23 71.8 °F /  22.1 °C 61.9 °F /  16.6 °C 29.9in /  1012.9hPa ENE 0.9mph /  1.4km/h 4mph /  6.4km/h 71% 0in /  0.0mm 313 W/m2
10:28 72 °F /  22.2 °C 62.4 °F /  16.9 °C 29.9in /  1012.9hPa SE 0.9mph /  1.4km/h 3mph /  4.8km/h 72% 0in /  0.0mm 387 W/m2
10:33 72.1 °F /  22.3 °C 62.6 °F /  17 °C 29.9in /  1012.9hPa East 0.9mph /  1.4km/h 4mph /  6.4km/h 72% 0in /  0.0mm 417 W/m2
10:38 72.5 °F /  22.5 °C 63 °F /  17.2 °C 29.9in /  1012.9hPa East 2mph /  3.2km/h 4mph /  6.4km/h 72% 0in /  0.0mm 487 W/m2
10:43 72.9 °F /  22.7 °C 62.4 °F /  16.9 °C 29.9in /  1012.9hPa ESE 2.9mph /  4.7km/h 3mph /  4.8km/h 70% 0in /  0.0mm 329 W/m2
10:48 73 °F /  22.8 °C 62.2 °F /  16.8 °C 29.9in /  1012.9hPa East 0.9mph /  1.4km/h 3mph /  4.8km/h 69% 0in /  0.0mm 522 W/m2
10:53 73.2 °F /  22.9 °C 62.8 °F /  17.1 °C 29.9in /  1012.9hPa ENE 2mph /  3.2km/h 4mph /  6.4km/h 70% 0in /  0.0mm 492 W/m2
10:58 73.8 °F /  23.2 °C 63.3 °F /  17.4 °C 29.9in /  1012.9hPa NE 2mph /  3.2km/h 6mph /  9.7km/h 70% 0in /  0.0mm 496 W/m2
11:03 74.1 °F /  23.4 °C 63.3 °F /  17.4 °C 29.9in /  1012.5hPa SE 0.9mph /  1.4km/h 2mph /  3.2km/h 69% 0in /  0.0mm 520 W/m2
11:08 74.3 °F /  23.5 °C 62.6 °F /  17 °C 29.9in /  1012.9hPa ENE 2mph /  3.2km/h 4mph /  6.4km/h 67% 0in /  0.0mm 571 W/m2
11:13 74.5 °F /  23.6 °C 63.7 °F /  17.6 °C 29.9in /  1012.5hPa ESE 2mph /  3.2km/h 2mph /  3.2km/h 69% 0in /  0.0mm 487 W/m2
11:18 74.8 °F /  23.8 °C 64 °F /  17.8 °C 29.9in /  1012.9hPa East 0.9mph /  1.4km/h 3mph /  4.8km/h 69% 0in /  0.0mm 566 W/m2
11:23 75 °F /  23.9 °C 63.3 °F /  17.4 °C 29.9in /  1012.5hPa East 0.9mph /  1.4km/h 2mph /  3.2km/h 67% 0in /  0.0mm 497 W/m2
11:28 75.2 °F /  24 °C 63.1 °F /  17.3 °C 29.9in /  1012.5hPa North 0.9mph /  1.4km/h 3mph /  4.8km/h 66% 0in /  0.0mm 622 W/m2
11:33 75.7 °F /  24.3 °C 63.1 °F /  17.3 °C 29.9in /  1012.5hPa Calm   2mph /  3.2km/h 65% 0in /  0.0mm 719 W/m2
11:38 76.3 °F /  24.6 °C 64 °F /  17.8 °C 29.9in /  1012.5hPa ESE 2.9mph /  4.7km/h 4mph /  6.4km/h 66% 0in /  0.0mm 543 W/m2
11:43 76.3 °F /  24.6 °C 63.1 °F /  17.3 °C 29.9in /  1012.5hPa East 2mph /  3.2km/h 4mph /  6.4km/h 64% 0in /  0.0mm 459 W/m2
11:48 76.3 °F /  24.6 °C 63.7 °F /  17.6 °C 29.9in /  1012.5hPa Calm   3mph /  4.8km/h 65% 0in /  0.0mm 408 W/m2
11:53 76.3 °F /  24.6 °C 64 °F /  17.8 °C 29.9in /  1012.5hPa ENE 0.9mph /  1.4km/h 4mph /  6.4km/h 66% 0in /  0.0mm 431 W/m2
11:58 76.3 °F /  24.6 °C 64 °F /  17.8 °C 29.9in /  1012.5hPa Calm   2mph /  3.2km/h 66% 0in /  0.0mm 432 W/m2
12:03 76.5 °F /  24.7 °C 64.2 °F /  17.9 °C 29.9in /  1012.5hPa East 4mph /  6.4km/h 4mph /  6.4km/h 66% 0in /  0.0mm 429 W/m2
12:08 76.5 °F /  24.7 °C 63.9 °F /  17.7 °C 29.9in /  1012.5hPa NE 2mph /  3.2km/h 4mph /  6.4km/h 65% 0in /  0.0mm 473 W/m2
12:13 76.3 °F /  24.6 °C 63.7 °F /  17.6 °C 29.9in /  1012.5hPa West 0.9mph /  1.4km/h 3mph /  4.8km/h 65% 0in /  0.0mm 439 W/m2
12:18 76.3 °F /  24.6 °C 64.6 °F /  18.1 °C 29.9in /  1012.9hPa Calm   4mph /  6.4km/h 67% 0in /  0.0mm 353 W/m2
12:23 76.3 °F /  24.6 °C 64 °F /  17.8 °C 29.9in /  1012.5hPa ENE 2mph /  3.2km/h 4mph /  6.4km/h 66% 0in /  0.0mm 306 W/m2
12:28 75.9 °F /  24.4 °C 64.2 °F /  17.9 °C 29.9in /  1012.5hPa ESE 0.9mph /  1.4km/h 2mph /  3.2km/h 67% 0in /  0.0mm 334 W/m2
12:33 75.9 °F /  24.4 °C 63.7 °F /  17.6 °C 29.9in /  1012.5hPa Calm   2mph /  3.2km/h 66% 0in /  0.0mm 279 W/m2
12:38 75.6 °F /  24.2 °C 63.3 °F /  17.4 °C 29.9in /  1012.5hPa WNW 2mph /  3.2km/h 3mph /  4.8km/h 66% 0in /  0.0mm 281 W/m2
12:43 75.4 °F /  24.1 °C 63.1 °F /  17.3 °C 29.9in /  1012.5hPa WNW 0.9mph /  1.4km/h 2mph /  3.2km/h 66% 0in /  0.0mm 287 W/m2
12:48 75.2 °F /  24 °C 63.9 °F /  17.7 °C 29.9in /  1012.5hPa West 0.9mph /  1.4km/h 2mph /  3.2km/h 68% 0in /  0.0mm 244 W/m2
12:53 75.2 °F /  24 °C 63.9 °F /  17.7 °C 29.9in /  1012.5hPa West 0.9mph /  1.4km/h 2mph /  3.2km/h 68% 0in /  0.0mm 193 W/m2
12:58 75 °F /  23.9 °C 63.7 °F /  17.6 °C 29.9in /  1012.5hPa Calm   1mph /  1.6km/h 68% 0in /  0.0mm 160 W/m2
13:03 75 °F /  23.9 °C 64.6 °F /  18.1 °C 29.9in /  1012.5hPa Calm     70% 0in /  0.0mm 151 W/m2
13:08 75.2 °F /  24 °C 65.1 °F /  18.4 °C 29.9in /  1012.5hPa Calm   1mph /  1.6km/h 71% 0in /  0.0mm 118 W/m2
13:13 75.4 °F /  24.1 °C 66.6 °F /  19.2 °C 29.9in /  1012.5hPa Calm     74% 0in /  0.0mm 174 W/m2
13:18 74.8 °F /  23.8 °C 65.7 °F /  18.7 °C 29.9in /  1012.9hPa West 2mph /  3.2km/h 2mph /  3.2km/h 73% 0in /  0.0mm 174 W/m2
13:23 74.5 °F /  23.6 °C 65.7 °F /  18.7 °C 29.9in /  1012.9hPa WSW 4.9mph /  7.9km/h 5mph /  8km/h 74% 0in /  0.0mm 169 W/m2
13:28 73.9 °F /  23.3 °C 65.1 °F /  18.4 °C 29.9in /  1012.9hPa West 0.9mph /  1.4km/h 3mph /  4.8km/h 74% 0in /  0.0mm 183 W/m2
13:33 73.8 °F /  23.2 °C 64.9 °F /  18.3 °C 29.9in /  1012.9hPa West 2.9mph /  4.7km/h 4mph /  6.4km/h 74% 0in /  0.0mm 153 W/m2
13:38 73.6 °F /  23.1 °C 65.5 °F /  18.6 °C 29.9in /  1013.2hPa WSW 4.9mph /  7.9km/h 5mph /  8km/h 76% 0in /  0.0mm 120 W/m2
13:43 73.2 °F /  22.9 °C 65.1 °F /  18.4 °C 29.9in /  1012.9hPa West 2.9mph /  4.7km/h 9mph /  14.5km/h 76% 0in /  0.0mm 171 W/m2
13:48 72.9 °F /  22.7 °C 66 °F /  18.9 °C 29.9in /  1012.9hPa West 0.9mph /  1.4km/h 2mph /  3.2km/h 79% 0in /  0.0mm 218 W/m2
13:53 72.7 °F /  22.6 °C 65.5 °F /  18.6 °C 29.9in /  1012.9hPa WNW 0.9mph /  1.4km/h 4mph /  6.4km/h 78% 0in /  0.0mm 218 W/m2
13:58 72.5 °F /  22.5 °C 65.3 °F /  18.5 °C 29.9in /  1012.9hPa WNW 4mph /  6.4km/h 5mph /  8km/h 78% 0in /  0.0mm 197 W/m2
14:03 72.3 °F /  22.4 °C 65.1 °F /  18.4 °C 29.9in /  1012.9hPa WNW 2mph /  3.2km/h 3mph /  4.8km/h 78% 0in /  0.0mm 167 W/m2
14:08 72.3 °F /  22.4 °C 65.5 °F /  18.6 °C 29.9in /  1012.9hPa NW 2.9mph /  4.7km/h 5mph /  8km/h 79% 0in /  0.0mm 179 W/m2
14:13 72.3 °F /  22.4 °C 65.5 °F /  18.6 °C 29.9in /  1012.5hPa Calm   1mph /  1.6km/h 79% 0in /  0.0mm 204 W/m2
14:18 72.5 °F /  22.5 °C 65.3 °F /  18.5 °C 29.9in /  1012.5hPa NNW 2mph /  3.2km/h 3mph /  4.8km/h 78% 0in /  0.0mm 257 W/m2
14:23 72.7 °F /  22.6 °C 65.8 °F /  18.8 °C 29.9in /  1012.5hPa WSW 2mph /  3.2km/h 3mph /  4.8km/h 79% 0in /  0.0mm 311 W/m2
14:28 72.9 °F /  22.7 °C 65.7 °F /  18.7 °C 29.9in /  1012.5hPa WNW 2mph /  3.2km/h 3mph /  4.8km/h 78% 0in /  0.0mm 288 W/m2
14:33 73 °F /  22.8 °C 64.9 °F /  18.3 °C 29.9in /  1012.5hPa Calm   2mph /  3.2km/h 76% 0in /  0.0mm 299 W/m2
14:38 73.2 °F /  22.9 °C 65.7 °F /  18.7 °C 29.9in /  1012.5hPa West 2.9mph /  4.7km/h 4mph /  6.4km/h 77% 0in /  0.0mm 388 W/m2
14:43 73.4 °F /  23 °C 64.9 °F /  18.3 °C 29.9in /  1012.5hPa NW 0.9mph /  1.4km/h 4mph /  6.4km/h 75% 0in /  0.0mm 397 W/m2
14:48 73.6 °F /  23.1 °C 65.5 °F /  18.6 °C 29.9in /  1012.5hPa WNW 0.9mph /  1.4km/h 2mph /  3.2km/h 76% 0in /  0.0mm 330 W/m2
14:53 73.9 °F /  23.3 °C 65.8 °F /  18.8 °C 29.9in /  1012.5hPa WNW 0.9mph /  1.4km/h 2mph /  3.2km/h 76% 0in /  0.0mm 288 W/m2
14:58 74.1 °F /  23.4 °C 65.7 °F /  18.7 °C 29.9in /  1012.5hPa Calm   1mph /  1.6km/h 75% 0in /  0.0mm 352 W/m2
15:03 74.7 °F /  23.7 °C 65.5 °F /  18.6 °C 29.9in /  1012.5hPa Calm   2mph /  3.2km/h 73% 0in /  0.0mm 341 W/m2
15:08 74.8 °F /  23.8 °C 65.1 °F /  18.4 °C 29.9in /  1012.5hPa NE 2mph /  3.2km/h 2mph /  3.2km/h 72% 0in /  0.0mm 311 W/m2
15:13 75 °F /  23.9 °C 65.3 °F /  18.5 °C 29.9in /  1012.2hPa Calm   3mph /  4.8km/h 72% 0in /  0.0mm 267 W/m2
15:18 75 °F /  23.9 °C 65.3 °F /  18.5 °C 29.9in /  1012.2hPa ENE 2mph /  3.2km/h 4mph /  6.4km/h 72% 0in /  0.0mm 336 W/m2
15:23 75 °F /  23.9 °C 65.8 °F /  18.8 °C 29.9in /  1012.2hPa Calm   3mph /  4.8km/h 73% 0in /  0.0mm 425 W/m2
15:28 75.2 °F /  24 °C 66 °F /  18.9 °C 29.9in /  1012.5hPa ENE 0.9mph /  1.4km/h 3mph /  4.8km/h 73% 0in /  0.0mm 362 W/m2
15:33 75.4 °F /  24.1 °C 66.2 °F /  19 °C 29.9in /  1012.5hPa SE 2mph /  3.2km/h 2mph /  3.2km/h 73% 0in /  0.0mm 350 W/m2
15:38 75.6 °F /  24.2 °C 65.8 °F /  18.8 °C 29.9in /  1012.5hPa North 0.9mph /  1.4km/h 5mph /  8km/h 72% 0in /  0.0mm 439 W/m2
15:43 75.9 °F /  24.4 °C 65.5 °F /  18.6 °C 29.9in /  1012.5hPa ENE 0.9mph /  1.4km/h 4mph /  6.4km/h 70% 0in /  0.0mm 517 W/m2
15:48 76.3 °F /  24.6 °C 66.2 °F /  19 °C 29.9in /  1012.5hPa East 0.9mph /  1.4km/h 5mph /  8km/h 71% 0in /  0.0mm 323 W/m2
15:53 76.5 °F /  24.7 °C 66.4 °F /  19.1 °C 29.9in /  1012.5hPa Calm   2mph /  3.2km/h 71% 0in /  0.0mm 343 W/m2
15:58 76.8 °F /  24.9 °C 66.7 °F /  19.3 °C 29.9in /  1012.2hPa Calm   2mph /  3.2km/h 71% 0in /  0.0mm 323 W/m2
16:03 77 °F /  25 °C 66.4 °F /  19.1 °C 29.9in /  1012.5hPa Calm   2mph /  3.2km/h 70% 0in /  0.0mm 322 W/m2
16:08 77.4 °F /  25.2 °C 67.3 °F /  19.6 °C 29.9in /  1012.5hPa Calm   1mph /  1.6km/h 71% 0in /  0.0mm 281 W/m2
16:13 77.4 °F /  25.2 °C 67.3 °F /  19.6 °C 29.9in /  1012.5hPa WSW 2mph /  3.2km/h 3mph /  4.8km/h 71% 0in /  0.0mm 288 W/m2
16:18 77.2 °F /  25.1 °C 66.2 °F /  19 °C 29.9in /  1012.2hPa NE 0.9mph /  1.4km/h 1mph /  1.6km/h 69% 0in /  0.0mm 246 W/m2
16:23 77.2 °F /  25.1 °C 66.6 °F /  19.2 °C 29.9in /  1012.5hPa SE 2.9mph /  4.7km/h 6mph /  9.7km/h 70% 0in /  0.0mm 262 W/m2
16:28 77 °F /  25 °C 67.6 °F /  19.8 °C 29.9in /  1012.5hPa ESE 0.9mph /  1.4km/h 2mph /  3.2km/h 73% 0in /  0.0mm 415 W/m2
16:33 77 °F /  25 °C 66.4 °F /  19.1 °C 29.9in /  1012.5hPa Calm   6mph /  9.7km/h 70% 0in /  0.0mm 311 W/m2
16:38 77.2 °F /  25.1 °C 66.2 °F /  19 °C 29.9in /  1012.5hPa WNW 2mph /  3.2km/h 4mph /  6.4km/h 69% 0in /  0.0mm 397 W/m2
16:43 77 °F /  25 °C 66 °F /  18.9 °C 29.9in /  1012.5hPa NE 2.9mph /  4.7km/h 7mph /  11.3km/h 69% 0in /  0.0mm 243 W/m2
16:48 76.6 °F /  24.8 °C 65.3 °F /  18.5 °C 29.9in /  1012.5hPa ENE 0.9mph /  1.4km/h 2mph /  3.2km/h 68% 0in /  0.0mm 190 W/m2
16:53 76.5 °F /  24.7 °C 66 °F /  18.9 °C 29.9in /  1012.5hPa ENE 0.9mph /  1.4km/h 3mph /  4.8km/h 70% 0in /  0.0mm 262 W/m2
16:58 76.3 °F /  24.6 °C 66.2 °F /  19 °C 29.9in /  1012.5hPa ENE 0.9mph /  1.4km/h 2mph /  3.2km/h 71% 0in /  0.0mm 236 W/m2
17:03 76.3 °F /  24.6 °C 65.8 °F /  18.8 °C 29.9in /  1012.5hPa Calm   3mph /  4.8km/h 70% 0in /  0.0mm 236 W/m2
17:08 76.5 °F /  24.7 °C 66.4 °F /  19.1 °C 29.9in /  1012.5hPa Calm   6mph /  9.7km/h 71% 0in /  0.0mm 218 W/m2
17:13 76.1 °F /  24.5 °C 66.4 °F /  19.1 °C 29.9in /  1012.5hPa Calm   7mph /  11.3km/h 72% 0in /  0.0mm 213 W/m2
17:18 75.9 °F /  24.4 °C 66.2 °F /  19 °C 29.9in /  1012.2hPa West 0.9mph /  1.4km/h 3mph /  4.8km/h 72% 0in /  0.0mm 199 W/m2
17:23 75.7 °F /  24.3 °C 66 °F /  18.9 °C 29.9in /  1012.2hPa SW 0.9mph /  1.4km/h 6mph /  9.7km/h 72% 0in /  0.0mm 236 W/m2
17:28 75.7 °F /  24.3 °C 65.7 °F /  18.7 °C 29.9in /  1012.2hPa East 0.9mph /  1.4km/h 7mph /  11.3km/h 71% 0in /  0.0mm 388 W/m2
17:33 75.9 °F /  24.4 °C 66.6 °F /  19.2 °C 29.9in /  1012.2hPa ESE 0.9mph /  1.4km/h 4mph /  6.4km/h 73% 0in /  0.0mm 378 W/m2
17:38 76.1 °F /  24.5 °C 66 °F /  18.9 °C 29.9in /  1012.2hPa SE 2.9mph /  4.7km/h 5mph /  8km/h 71% 0in /  0.0mm 309 W/m2
17:43 76.3 °F /  24.6 °C 65.8 °F /  18.8 °C 29.9in /  1011.9hPa East 2mph /  3.2km/h 4mph /  6.4km/h 70% 0in /  0.0mm 304 W/m2
17:48 76.3 °F /  24.6 °C 65.8 °F /  18.8 °C 29.9in /  1011.9hPa NNW 0.9mph /  1.4km/h 4mph /  6.4km/h 70% 0in /  0.0mm 385 W/m2
17:53 76.5 °F /  24.7 °C 66 °F /  18.9 °C 29.9in /  1011.9hPa ENE 2mph /  3.2km/h 7mph /  11.3km/h 70% 0in /  0.0mm 348 W/m2
17:58 76.5 °F /  24.7 °C 66 °F /  18.9 °C 29.9in /  1011.9hPa West 2mph /  3.2km/h 2mph /  3.2km/h 70% 0in /  0.0mm 255 W/m2
18:03 76.3 °F /  24.6 °C 65.8 °F /  18.8 °C 29.9in /  1011.9hPa ESE 2.9mph /  4.7km/h 7mph /  11.3km/h 70% 0in /  0.0mm 221 W/m2
18:08 76.3 °F /  24.6 °C 66.2 °F /  19 °C 29.9in /  1011.9hPa ESE 2.9mph /  4.7km/h 3mph /  4.8km/h 71% 0in /  0.0mm 265 W/m2
18:13 76.3 °F /  24.6 °C 66.6 °F /  19.2 °C 29.9in /  1011.5hPa East 2mph /  3.2km/h 3mph /  4.8km/h 72% 0in /  0.0mm 413 W/m2
18:18 76.6 °F /  24.8 °C 67.3 °F /  19.6 °C 29.9in /  1011.5hPa Calm   2mph /  3.2km/h 73% 0in /  0.0mm 396 W/m2
18:23 76.8 °F /  24.9 °C 66.7 °F /  19.3 °C 29.9in /  1011.5hPa WSW 2mph /  3.2km/h 3mph /  4.8km/h 71% 0in /  0.0mm 183 W/m2
18:28 77 °F /  25 °C 67.3 °F /  19.6 °C 29.9in /  1011.5hPa East 0.9mph /  1.4km/h 4mph /  6.4km/h 72% 0in /  0.0mm 269 W/m2
18:33 77.4 °F /  25.2 °C 66.7 °F /  19.3 °C 29.9in /  1011.2hPa East 2mph /  3.2km/h 2mph /  3.2km/h 70% 0in /  0.0mm 325 W/m2
18:38 77.5 °F /  25.3 °C 66.6 °F /  19.2 °C 29.9in /  1011.2hPa NE 2.9mph /  4.7km/h 4mph /  6.4km/h 69% 0in /  0.0mm 132 W/m2
18:43 77.2 °F /  25.1 °C 66.6 °F /  19.2 °C 29.9in /  1011.2hPa SE 0.9mph /  1.4km/h 4mph /  6.4km/h 70% 0in /  0.0mm 125 W/m2
18:48 76.8 °F /  24.9 °C 66.7 °F /  19.3 °C 29.9in /  1011.2hPa SSW 2mph /  3.2km/h 2mph /  3.2km/h 71% 0in /  0.0mm 213 W/m2
18:53 77.2 °F /  25.1 °C 66.6 °F /  19.2 °C 29.9in /  1011.2hPa Calm   1mph /  1.6km/h 70% 0in /  0.0mm 390 W/m2
18:58 78.1 °F /  25.6 °C 66.7 °F /  19.3 °C 29.9in /  1010.8hPa East 2.9mph /  4.7km/h 4mph /  6.4km/h 68% 0in /  0.0mm 439 W/m2
19:03 78.6 °F /  25.9 °C 65.8 °F /  18.8 °C 29.9in /  1010.8hPa ESE 2mph /  3.2km/h 4mph /  6.4km/h 65% 0in /  0.0mm 392 W/m2
19:08 79 °F /  26.1 °C 65.8 °F /  18.8 °C 29.9in /  1010.8hPa ENE 0.9mph /  1.4km/h 7mph /  11.3km/h 64% 0in /  0.0mm 274 W/m2
19:13 78.6 °F /  25.9 °C 65.5 °F /  18.6 °C 29.9in /  1010.8hPa ESE 0.9mph /  1.4km/h 4mph /  6.4km/h 64% 0in /  0.0mm 269 W/m2
19:19 78.8 °F /  26 °C 65.1 °F /  18.4 °C 29.9in /  1010.8hPa SE 2.9mph /  4.7km/h 7mph /  11.3km/h 63% 0in /  0.0mm 239 W/m2
19:24 78.3 °F /  25.7 °C 65.1 °F /  18.4 °C 29.9in /  1010.8hPa Calm   6mph /  9.7km/h 64% 0in /  0.0mm 207 W/m2
19:29 78.1 °F /  25.6 °C 65.3 °F /  18.5 °C 29.9in /  1010.8hPa ESE 2.9mph /  4.7km/h 7mph /  11.3km/h 65% 0in /  0.0mm 195 W/m2
19:34 77.5 °F /  25.3 °C 65.7 °F /  18.7 °C 29.9in /  1011.2hPa WNW 0.9mph /  1.4km/h 2mph /  3.2km/h 67% 0in /  0.0mm 199 W/m2
19:39 77.5 °F /  25.3 °C 64.8 °F /  18.2 °C 29.9in /  1011.2hPa East 2mph /  3.2km/h 7mph /  11.3km/h 65% 0in /  0.0mm 105 W/m2
19:44 77.2 °F /  25.1 °C 64.9 °F /  18.3 °C 29.9in /  1011.2hPa East 2.9mph /  4.7km/h 4mph /  6.4km/h 66% 0in /  0.0mm 104 W/m2
19:49 76.8 °F /  24.9 °C 64.9 °F /  18.3 °C 29.9in /  1011.2hPa Calm   3mph /  4.8km/h 67% 0in /  0.0mm 114 W/m2
19:54 76.6 °F /  24.8 °C 65.3 °F /  18.5 °C 29.9in /  1011.2hPa Calm   2mph /  3.2km/h 68% 0in /  0.0mm 114 W/m2
19:59 76.5 °F /  24.7 °C 65.1 °F /  18.4 °C 29.9in /  1011.2hPa ESE 6mph /  9.7km/h 6mph /  9.7km/h 68% 0in /  0.0mm 77 W/m2
20:04 76.3 °F /  24.6 °C 64.6 °F /  18.1 °C 29.9in /  1010.8hPa ENE 0.9mph /  1.4km/h 2mph /  3.2km/h 67% 0in /  0.0mm 62 W/m2
20:09 76.1 °F /  24.5 °C 65.1 °F /  18.4 °C 29.9in /  1010.8hPa North 0.9mph /  1.4km/h 2mph /  3.2km/h 69% 0in /  0.0mm 62 W/m2
20:14 75.7 °F /  24.3 °C 65.3 °F /  18.5 °C 29.9in /  1011.2hPa ESE 0.9mph /  1.4km/h 2mph /  3.2km/h 70% 0in /  0.0mm 65 W/m2
20:19 75.4 °F /  24.1 °C 64.6 °F /  18.1 °C 29.9in /  1011.2hPa East 2mph /  3.2km/h 2mph /  3.2km/h 69% 0in /  0.0mm 63 W/m2
20:24 75.2 °F /  24 °C 64.8 °F /  18.2 °C 29.9in /  1011.2hPa Calm   1mph /  1.6km/h 70% 0in /  0.0mm 58 W/m2
20:29 75 °F /  23.9 °C 63.7 °F /  17.6 °C 29.9in /  1011.5hPa Calm   4mph /  6.4km/h 68% 0in /  0.0mm 51 W/m2
20:34 74.8 °F /  23.8 °C 64 °F /  17.8 °C 29.9in /  1011.5hPa Calm   3mph /  4.8km/h 69% 0in /  0.0mm 44 W/m2
20:39 74.8 °F /  23.8 °C 65.1 °F /  18.4 °C 29.9in /  1011.2hPa Calm   4mph /  6.4km/h 72% 0in /  0.0mm 39 W/m2
20:44 74.7 °F /  23.7 °C 65.5 °F /  18.6 °C 29.9in /  1011.2hPa Calm   1mph /  1.6km/h 73% 0in /  0.0mm 39 W/m2
20:49 74.1 °F /  23.4 °C 64.9 °F /  18.3 °C 29.9in /  1011.2hPa South 2mph /  3.2km/h 2mph /  3.2km/h 73% 0in /  0.0mm 33 W/m2
20:54 73.8 °F /  23.2 °C 65.3 °F /  18.5 °C 29.9in /  1011.5hPa South 2mph /  3.2km/h 2mph /  3.2km/h 75% 0in /  0.0mm 28 W/m2
20:59 73.2 °F /  22.9 °C 64.4 °F /  18 °C 29.9in /  1011.9hPa South 0.9mph /  1.4km/h 2mph /  3.2km/h 74% 0in /  0.0mm 23 W/m2
21:04 73 °F /  22.8 °C 64.6 °F /  18.1 °C 29.9in /  1011.9hPa Calm   1mph /  1.6km/h 75% 0in /  0.0mm 21 W/m2
21:09 72.9 °F /  22.7 °C 64.8 °F /  18.2 °C 29.9in /  1011.9hPa Calm   1mph /  1.6km/h 76% 0in /  0.0mm 18 W/m2
21:14 72.5 °F /  22.5 °C 64.9 °F /  18.3 °C 29.9in /  1011.9hPa Calm   1mph /  1.6km/h 77% 0in /  0.0mm 14 W/m2
21:19 72.1 °F /  22.3 °C 64.6 °F /  18.1 °C 29.9in /  1012.2hPa Calm   1mph /  1.6km/h 77% 0in /  0.0mm 11 W/m2
21:24 72 °F /  22.2 °C 64.8 °F /  18.2 °C 29.9in /  1012.2hPa Calm   1mph /  1.6km/h 78% 0in /  0.0mm 7 W/m2
21:29 71.6 °F /  22 °C 64.8 °F /  18.2 °C 29.9in /  1012.2hPa Calm   1mph /  1.6km/h 79% 0in /  0.0mm 7 W/m2
21:34 71.4 °F /  21.9 °C 64.6 °F /  18.1 °C 29.9in /  1012.2hPa Calm     79% 0in /  0.0mm 5 W/m2
21:39 71.2 °F /  21.8 °C 64.8 °F /  18.2 °C 29.9in /  1012.5hPa Calm     80% 0in /  0.0mm 5 W/m2
21:44 71.1 °F /  21.7 °C 64.9 °F /  18.3 °C 29.9in /  1012.5hPa Calm   2mph /  3.2km/h 81% 0in /  0.0mm 0 W/m2
21:49 70.9 °F /  21.6 °C 64.8 °F /  18.2 °C 29.9in /  1012.5hPa Calm     81% 0in /  0.0mm 0 W/m2
21:54 70.5 °F /  21.4 °C 64.4 °F /  18 °C 29.9in /  1012.9hPa Calm   1mph /  1.6km/h 81% 0in /  0.0mm 0 W/m2
21:59 70.3 °F /  21.3 °C 64.6 °F /  18.1 °C 29.9in /  1012.9hPa Calm   1mph /  1.6km/h 82% 0in /  0.0mm 0 W/m2
22:04 70.2 °F /  21.2 °C 64.4 °F /  18 °C 29.9in /  1012.9hPa Calm     82% 0in /  0.0mm 0 W/m2
22:09 70.2 °F /  21.2 °C 64.4 °F /  18 °C 29.9in /  1012.9hPa Calm   1mph /  1.6km/h 82% 0in /  0.0mm 0 W/m2
22:14 70 °F /  21.1 °C 64.6 °F /  18.1 °C 29.9in /  1012.9hPa Calm   1mph /  1.6km/h 83% 0in /  0.0mm 0 W/m2
22:19 69.6 °F /  20.9 °C 64.2 °F /  17.9 °C 29.9in /  1012.9hPa Calm     83% 0in /  0.0mm 0 W/m2
22:24 69.4 °F /  20.8 °C 64 °F /  17.8 °C 29.9in /  1012.9hPa Calm     83% 0in /  0.0mm 0 W/m2
22:29 69.3 °F /  20.7 °C 63.9 °F /  17.7 °C 29.9in /  1012.9hPa Calm     83% 0in /  0.0mm 0 W/m2
22:34 69.1 °F /  20.6 °C 64 °F /  17.8 °C 29.9in /  1012.9hPa Calm     84% 0in /  0.0mm 0 W/m2
22:39 68.7 °F /  20.4 °C 63.3 °F /  17.4 °C 29.9in /  1012.9hPa Calm     83% 0in /  0.0mm 0 W/m2
22:44 68.5 °F /  20.3 °C 63.5 °F /  17.5 °C 29.9in /  1012.9hPa South 0.9mph /  1.4km/h 2mph /  3.2km/h 84% 0in /  0.0mm 0 W/m2
22:49 68.4 °F /  20.2 °C 63.3 °F /  17.4 °C 29.9in /  1012.9hPa South 0.9mph /  1.4km/h 2mph /  3.2km/h 84% 0in /  0.0mm 0 W/m2
22:54 68 °F /  20 °C 63 °F /  17.2 °C 29.9in /  1012.9hPa South 0.9mph /  1.4km/h 1mph /  1.6km/h 84% 0in /  0.0mm 0 W/m2
22:59 67.8 °F /  19.9 °C 62.8 °F /  17.1 °C 29.9in /  1012.9hPa Calm   1mph /  1.6km/h 84% 0in /  0.0mm 0 W/m2
23:04 67.6 °F /  19.8 °C 63 °F /  17.2 °C 29.9in /  1012.9hPa Calm     85% 0in /  0.0mm 0 W/m2
23:09 67.5 °F /  19.7 °C 62.8 °F /  17.1 °C 29.9in /  1012.9hPa Calm     85% 0in /  0.0mm 0 W/m2
23:14 67.3 °F /  19.6 °C 62.6 °F /  17 °C 29.9in /  1012.9hPa Calm     85% 0in /  0.0mm 0 W/m2
23:19 67.3 °F /  19.6 °C 62.6 °F /  17 °C 29.9in /  1012.9hPa Calm     85% 0in /  0.0mm 0 W/m2
23:24 66.9 °F /  19.4 °C 62.2 °F /  16.8 °C 29.9in /  1012.9hPa Calm     85% 0in /  0.0mm 0 W/m2
23:29 66.7 °F /  19.3 °C 62.4 °F /  16.9 °C 29.9in /  1012.9hPa Calm     86% 0in /  0.0mm 0 W/m2
23:34 66.7 °F /  19.3 °C 62.4 °F /  16.9 °C 29.9in /  1012.9hPa Calm   1mph /  1.6km/h 86% 0in /  0.0mm 0 W/m2
23:39 66.6 °F /  19.2 °C 62.2 °F /  16.8 °C 29.9in /  1012.9hPa Calm     86% 0in /  0.0mm 0 W/m2
23:44 66.4 °F /  19.1 °C 62.1 °F /  16.7 °C 29.9in /  1012.9hPa Calm     86% 0in /  0.0mm 0 W/m2
23:49 66.2 °F /  19 °C 61.9 °F /  16.6 °C 29.9in /  1012.9hPa Calm     86% 0in /  0.0mm 0 W/m2
23:54 66 °F /  18.9 °C 61.7 °F /  16.5 °C 29.9in /  1012.9hPa Calm     86% 0in /  0.0mm 0 W/m2
23:59 65.8 °F /  18.8 °C 61.5 °F /  16.4 °C 29.9in /  1012.9hPa Calm     86% 0in /  0.0mm 0 W/m2
Juneau County Weather
Compliments of Weather Underground - 4 mb